Taiheimaru — JM6135 — position and weather

sailwx.info

Track history (hours):
 
Tides and Currents Weather Stations Pressure Air Temp Water Temp Dewpoint Dewpoint Depression Visibility Wind Speed Wind Dir Waves Ship Positions

Taiheimaru

Last reported at 2014-Sep-01 07:08 UTC. Time now 2014-Sep-01 07:49 UTC.
Position N 34°38' E 135°24'.

Length 78 m.

Type: Cargo ship. MMSI: 431400082.

Date/timePositionNaut miles runAvg speedWind from/ knotsBaromVisibWave heightAir tempDewpointWater temp
2014-Sep-01 07:08N 34°38' E 135°24'1 0.8
2014-Sep-01 06:15N 34°38' E 135°25'7 9.5
2014-Sep-01 05:33N 34°39' E 135°17'2 2.1
2014-Sep-01 04:26N 34°40' E 135°14'0 0.0
2014-Sep-01 03:30N 34°40' E 135°14'0 0.1
2014-Sep-01 02:32N 34°40' E 135°14'1 1.3
2014-Sep-01 01:24N 34°40' E 135°13'0 0.0
2014-Sep-01 00:30N 34°40' E 135°13'0 0.0
2014-Aug-31 23:31N 34°40' E 135°13'0 0.0
2014-Aug-31 22:29N 34°40' E 135°13'0 0.0
2014-Aug-31 21:29N 34°40' E 135°13'0 0.0
2014-Aug-31 20:30N 34°40' E 135°13'0 0.0
2014-Aug-31 19:33N 34°40' E 135°13'0 0.0
2014-Aug-31 18:29N 34°40' E 135°13'0 0.0
2014-Aug-31 17:28N 34°40' E 135°13'0 0.0
2014-Aug-31 16:28N 34°40' E 135°13'0 0.0
2014-Aug-31 15:24N 34°40' E 135°13'0 0.0
2014-Aug-31 14:30N 34°40' E 135°13'0 0.0
2014-Aug-31 13:27N 34°40' E 135°13'0 0.0
2014-Aug-31 12:33N 34°40' E 135°13'3 3.3
2014-Aug-31 11:33N 34°37' E 135°13'  
2014-Aug-29 06:29N 34°37' E 134°56'8 8.7
2014-Aug-29 05:33N 34°36' E 135°06'8 7.6
2014-Aug-29 04:33N 34°40' E 135°14'0 0.0
2014-Aug-29 03:31N 34°40' E 135°14'0 0.0
2014-Aug-29 02:33N 34°40' E 135°14'0 0.0
2014-Aug-29 01:30N 34°40' E 135°14'1 1.4
2014-Aug-29 00:31N 34°38' E 135°15'0 0.0
2014-Aug-28 23:31N 34°38' E 135°15'3 3.2
2014-Aug-28 22:33N 34°37' E 135°12'14311.5
2014-Aug-28 10:10N 34°07' E 132°23'12 4.6
2014-Aug-28 07:33N 34°19' E 132°23'3 3.1
2014-Aug-28 06:31N 34°21' E 132°26'0 0.0
2014-Aug-28 05:31N 34°21' E 132°26'129 5.9
2014-Aug-27 07:31N 34°37' E 135°02'10 9.9
2014-Aug-27 06:33N 34°37' E 135°14'2 2.2
2014-Aug-27 05:30N 34°40' E 135°14'0 0.0
2014-Aug-27 04:29N 34°40' E 135°14'0 0.0
2014-Aug-27 03:29N 34°40' E 135°14'0 0.0
2014-Aug-27 02:30N 34°40' E 135°14'1 1.3
2014-Aug-27 01:29N 34°38' E 135°15'0 0.0
2014-Aug-27 00:26N 34°38' E 135°15'0 0.0
2014-Aug-26 23:33N 34°38' E 135°15'0 0.0
2014-Aug-26 22:29N 34°38' E 135°15'0 0.0
2014-Aug-26 21:29N 34°38' E 135°15'8 8.6
2014-Aug-26 20:33N 34°35' E 135°06'3 0.1
2014-Aug-25 06:10N 34°36' E 135°03'6 9.4
2014-Aug-25 05:33N 34°37' E 135°10'5 4.5
2014-Aug-25 04:31N 34°39' E 135°14'0 0.0
2014-Aug-25 03:33N 34°39' E 135°14'0 0.0
2014-Aug-25 02:24N 34°39' E 135°14'1 1.0
2014-Aug-25 01:33N 34°40' E 135°15'2 1.9
2014-Aug-25 00:33N 34°41' E 135°13'0 0.0
2014-Aug-24 23:31N 34°41' E 135°13'0 0.0
2014-Aug-24 22:31N 34°41' E 135°13'0 0.0
2014-Aug-24 21:31N 34°41' E 135°13'0 0.0
2014-Aug-24 20:19N 34°41' E 135°13'0 0.0
2014-Aug-24 19:31N 34°41' E 135°13'0 0.0
2014-Aug-24 18:25N 34°41' E 135°13'0 0.0
2014-Aug-24 17:31N 34°41' E 135°13'0 0.0
2014-Aug-24 16:31N 34°41' E 135°13'0 0.0
2014-Aug-24 15:28N 34°41' E 135°13'0 0.0
2014-Aug-24 14:28N 34°41' E 135°13'0 0.0
2014-Aug-24 13:30N 34°41' E 135°13'0 0.0
2014-Aug-24 12:30N 34°41' E 135°13'0 0.0
2014-Aug-24 11:32N 34°41' E 135°13'0 0.0
2014-Aug-24 10:33N 34°41' E 135°13'0 0.0
2014-Aug-24 09:33N 34°41' E 135°13'0 0.0
2014-Aug-24 08:32N 34°41' E 135°13'0 0.0
2014-Aug-24 07:28N 34°41' E 135°13'0 0.0
2014-Aug-24 06:31N 34°41' E 135°13'0 0.0
2014-Aug-24 05:31N 34°41' E 135°13'0 0.0
2014-Aug-24 04:31N 34°41' E 135°13'0 0.0
2014-Aug-24 03:31N 34°41' E 135°13'2 2.0
2014-Aug-24 02:33N 34°40' E 135°15'10 9.6
2014-Aug-24 01:33N 34°35' E 135°05'  
Track history (hours):
 
Tides and Currents Weather Stations Pressure Air Temp Water Temp Dewpoint Dewpoint Depression Visibility Wind Speed Wind Dir Waves Ship Positions

Taiheimaru

Last reported at 2014-Sep-01 07:08 UTC. Time now 2014-Sep-01 07:49 UTC.
Position N 34°38' E 135°24'.

Length 78 m.

Type: Cargo ship. MMSI: 431400082.

Date/timePositionNaut miles runAvg speedWind from/ knotsBaromVisibWave heightAir tempDewpointWater temp
2014-Sep-01 07:08N 34°38' E 135°24'1 0.8
2014-Sep-01 06:15N 34°38' E 135°25'7 9.5
2014-Sep-01 05:33N 34°39' E 135°17'2 2.1
2014-Sep-01 04:26N 34°40' E 135°14'0 0.0
2014-Sep-01 03:30N 34°40' E 135°14'0 0.1
2014-Sep-01 02:32N 34°40' E 135°14'1 1.3
2014-Sep-01 01:24N 34°40' E 135°13'0 0.0
2014-Sep-01 00:30N 34°40' E 135°13'0 0.0
2014-Aug-31 23:31N 34°40' E 135°13'0 0.0
2014-Aug-31 22:29N 34°40' E 135°13'0 0.0
2014-Aug-31 21:29N 34°40' E 135°13'0 0.0
2014-Aug-31 20:30N 34°40' E 135°13'0 0.0
2014-Aug-31 19:33N 34°40' E 135°13'0 0.0
2014-Aug-31 18:29N 34°40' E 135°13'0 0.0
2014-Aug-31 17:28N 34°40' E 135°13'0 0.0
2014-Aug-31 16:28N 34°40' E 135°13'0 0.0
2014-Aug-31 15:24N 34°40' E 135°13'0 0.0
2014-Aug-31 14:30N 34°40' E 135°13'0 0.0
2014-Aug-31 13:27N 34°40' E 135°13'0 0.0
2014-Aug-31 12:33N 34°40' E 135°13'3 3.3
2014-Aug-31 11:33N 34°37' E 135°13'  
2014-Aug-29 06:29N 34°37' E 134°56'8 8.7
2014-Aug-29 05:33N 34°36' E 135°06'8 7.6
2014-Aug-29 04:33N 34°40' E 135°14'0 0.0
2014-Aug-29 03:31N 34°40' E 135°14'0 0.0
2014-Aug-29 02:33N 34°40' E 135°14'0 0.0
2014-Aug-29 01:30N 34°40' E 135°14'1 1.4
2014-Aug-29 00:31N 34°38' E 135°15'0 0.0
2014-Aug-28 23:31N 34°38' E 135°15'3 3.2
2014-Aug-28 22:33N 34°37' E 135°12'14311.5
2014-Aug-28 10:10N 34°07' E 132°23'12 4.6
2014-Aug-28 07:33N 34°19' E 132°23'3 3.1
2014-Aug-28 06:31N 34°21' E 132°26'0 0.0
2014-Aug-28 05:31N 34°21' E 132°26'129 5.9
2014-Aug-27 07:31N 34°37' E 135°02'10 9.9
2014-Aug-27 06:33N 34°37' E 135°14'2 2.2
2014-Aug-27 05:30N 34°40' E 135°14'0 0.0
2014-Aug-27 04:29N 34°40' E 135°14'0 0.0
2014-Aug-27 03:29N 34°40' E 135°14'0 0.0
2014-Aug-27 02:30N 34°40' E 135°14'1 1.3
2014-Aug-27 01:29N 34°38' E 135°15'0 0.0
2014-Aug-27 00:26N 34°38' E 135°15'0 0.0
2014-Aug-26 23:33N 34°38' E 135°15'0 0.0
2014-Aug-26 22:29N 34°38' E 135°15'0 0.0
2014-Aug-26 21:29N 34°38' E 135°15'8 8.6
2014-Aug-26 20:33N 34°35' E 135°06'3 0.1
2014-Aug-25 06:10N 34°36' E 135°03'6 9.4
2014-Aug-25 05:33N 34°37' E 135°10'5 4.5
2014-Aug-25 04:31N 34°39' E 135°14'0 0.0
2014-Aug-25 03:33N 34°39' E 135°14'0 0.0
2014-Aug-25 02:24N 34°39' E 135°14'1 1.0
2014-Aug-25 01:33N 34°40' E 135°15'2 1.9
2014-Aug-25 00:33N 34°41' E 135°13'0 0.0
2014-Aug-24 23:31N 34°41' E 135°13'0 0.0
2014-Aug-24 22:31N 34°41' E 135°13'0 0.0
2014-Aug-24 21:31N 34°41' E 135°13'0 0.0
2014-Aug-24 20:19N 34°41' E 135°13'0 0.0
2014-Aug-24 19:31N 34°41' E 135°13'0 0.0
2014-Aug-24 18:25N 34°41' E 135°13'0 0.0
2014-Aug-24 17:31N 34°41' E 135°13'0 0.0
2014-Aug-24 16:31N 34°41' E 135°13'0 0.0
2014-Aug-24 15:28N 34°41' E 135°13'0 0.0
2014-Aug-24 14:28N 34°41' E 135°13'0 0.0
2014-Aug-24 13:30N 34°41' E 135°13'0 0.0
2014-Aug-24 12:30N 34°41' E 135°13'0 0.0
2014-Aug-24 11:32N 34°41' E 135°13'0 0.0
2014-Aug-24 10:33N 34°41' E 135°13'0 0.0
2014-Aug-24 09:33N 34°41' E 135°13'0 0.0
2014-Aug-24 08:32N 34°41' E 135°13'0 0.0
2014-Aug-24 07:28N 34°41' E 135°13'0 0.0
2014-Aug-24 06:31N 34°41' E 135°13'0 0.0
2014-Aug-24 05:31N 34°41' E 135°13'0 0.0
2014-Aug-24 04:31N 34°41' E 135°13'0 0.0
2014-Aug-24 03:31N 34°41' E 135°13'2 2.0
2014-Aug-24 02:33N 34°40' E 135°15'10 9.6
2014-Aug-24 01:33N 34°35' E 135°05'  

Dump ship's entire track history